sensor_id;sensor_type;location;lat;lon;timestamp;P1;durP1;ratioP1;P2;durP2;ratioP2
19842;SDS011;10082;51.038;6.992;2023-04-06T00:01:45;9.60;;;8.43;;
19842;SDS011;10082;51.038;6.992;2023-04-06T00:04:12;9.77;;;8.70;;
19842;SDS011;10082;51.038;6.992;2023-04-06T00:06:43;9.17;;;8.23;;
19842;SDS011;10082;51.038;6.992;2023-04-06T00:09:10;8.80;;;7.90;;
19842;SDS011;10082;51.038;6.992;2023-04-06T00:11:38;8.90;;;8.00;;
19842;SDS011;10082;51.038;6.992;2023-04-06T00:14:05;9.17;;;8.13;;
19842;SDS011;10082;51.038;6.992;2023-04-06T00:16:33;9.47;;;8.50;;
19842;SDS011;10082;51.038;6.992;2023-04-06T00:19:00;9.10;;;8.30;;
19842;SDS011;10082;51.038;6.992;2023-04-06T00:21:28;8.37;;;7.57;;
19842;SDS011;10082;51.038;6.992;2023-04-06T00:23:58;10.57;;;9.23;;
19842;SDS011;10082;51.038;6.992;2023-04-06T00:26:25;9.90;;;8.90;;
19842;SDS011;10082;51.038;6.992;2023-04-06T00:28:54;9.30;;;8.40;;
19842;SDS011;10082;51.038;6.992;2023-04-06T00:31:21;10.70;;;8.80;;
19842;SDS011;10082;51.038;6.992;2023-04-06T00:33:49;9.37;;;8.47;;
19842;SDS011;10082;51.038;6.992;2023-04-06T00:36:17;9.53;;;8.60;;
19842;SDS011;10082;51.038;6.992;2023-04-06T00:38:44;9.77;;;8.83;;
19842;SDS011;10082;51.038;6.992;2023-04-06T00:41:13;10.67;;;8.83;;
19842;SDS011;10082;51.038;6.992;2023-04-06T00:43:41;8.80;;;7.90;;
19842;SDS011;10082;51.038;6.992;2023-04-06T00:46:08;10.83;;;8.80;;
19842;SDS011;10082;51.038;6.992;2023-04-06T00:48:36;10.00;;;9.10;;
19842;SDS011;10082;51.038;6.992;2023-04-06T00:51:04;9.60;;;8.60;;
19842;SDS011;10082;51.038;6.992;2023-04-06T00:53:32;9.20;;;8.30;;
19842;SDS011;10082;51.038;6.992;2023-04-06T00:56:00;9.77;;;8.77;;
19842;SDS011;10082;51.038;6.992;2023-04-06T00:58:35;9.10;;;8.30;;
19842;SDS011;10082;51.038;6.992;2023-04-06T01:01:06;9.47;;;8.57;;
19842;SDS011;10082;51.038;6.992;2023-04-06T01:03:34;9.53;;;8.63;;
19842;SDS011;10082;51.038;6.992;2023-04-06T01:06:03;9.87;;;8.87;;
19842;SDS011;10082;51.038;6.992;2023-04-06T01:08:36;9.87;;;8.90;;
19842;SDS011;10082;51.038;6.992;2023-04-06T01:11:14;10.90;;;8.80;;
19842;SDS011;10082;51.038;6.992;2023-04-06T01:13:43;10.07;;;9.17;;
19842;SDS011;10082;51.038;6.992;2023-04-06T01:16:19;10.77;;;9.77;;
19842;SDS011;10082;51.038;6.992;2023-04-06T01:18:59;10.50;;;9.30;;
19842;SDS011;10082;51.038;6.992;2023-04-06T01:21:30;11.10;;;9.47;;
19842;SDS011;10082;51.038;6.992;2023-04-06T01:24:14;10.73;;;9.20;;
19842;SDS011;10082;51.038;6.992;2023-04-06T01:26:55;10.10;;;9.10;;
19842;SDS011;10082;51.038;6.992;2023-04-06T01:29:24;10.77;;;9.77;;
19842;SDS011;10082;51.038;6.992;2023-04-06T01:31:52;12.00;;;9.60;;
19842;SDS011;10082;51.038;6.992;2023-04-06T01:34:26;10.67;;;9.67;;
19842;SDS011;10082;51.038;6.992;2023-04-06T01:36:55;10.63;;;9.57;;
19842;SDS011;10082;51.038;6.992;2023-04-06T01:39:28;10.80;;;9.70;;
19842;SDS011;10082;51.038;6.992;2023-04-06T01:41:59;10.50;;;9.50;;
19842;SDS011;10082;51.038;6.992;2023-04-06T01:44:26;10.10;;;9.10;;
19842;SDS011;10082;51.038;6.992;2023-04-06T01:47:04;10.53;;;9.57;;
19842;SDS011;10082;51.038;6.992;2023-04-06T01:49:31;10.97;;;9.93;;
19842;SDS011;10082;51.038;6.992;2023-04-06T01:51:59;10.87;;;9.77;;
19842;SDS011;10082;51.038;6.992;2023-04-06T01:54:32;10.20;;;9.20;;
19842;SDS011;10082;51.038;6.992;2023-04-06T01:57:13;10.50;;;9.50;;
19842;SDS011;10082;51.038;6.992;2023-04-06T01:59:48;11.80;;;10.60;;
19842;SDS011;10082;51.038;6.992;2023-04-06T02:02:25;10.63;;;9.53;;
19842;SDS011;10082;51.038;6.992;2023-04-06T02:05:00;11.10;;;9.83;;
19842;SDS011;10082;51.038;6.992;2023-04-06T02:07:28;11.87;;;10.77;;
19842;SDS011;10082;51.038;6.992;2023-04-06T02:09:57;10.87;;;9.83;;
19842;SDS011;10082;51.038;6.992;2023-04-06T02:12:33;10.83;;;9.83;;
19842;SDS011;10082;51.038;6.992;2023-04-06T02:15:01;10.67;;;9.77;;
19842;SDS011;10082;51.038;6.992;2023-04-06T02:17:29;11.90;;;10.27;;
19842;SDS011;10082;51.038;6.992;2023-04-06T02:19:56;11.10;;;10.00;;
19842;SDS011;10082;51.038;6.992;2023-04-06T02:22:23;10.83;;;9.83;;
19842;SDS011;10082;51.038;6.992;2023-04-06T02:24:51;10.73;;;9.77;;
19842;SDS011;10082;51.038;6.992;2023-04-06T02:27:20;11.23;;;10.07;;
19842;SDS011;10082;51.038;6.992;2023-04-06T02:29:47;10.67;;;9.77;;
19842;SDS011;10082;51.038;6.992;2023-04-06T02:32:18;11.53;;;10.53;;
19842;SDS011;10082;51.038;6.992;2023-04-06T02:34:46;10.97;;;9.97;;
19842;SDS011;10082;51.038;6.992;2023-04-06T02:37:16;11.93;;;10.73;;
19842;SDS011;10082;51.038;6.992;2023-04-06T02:39:43;12.30;;;10.83;;
19842;SDS011;10082;51.038;6.992;2023-04-06T02:42:10;11.47;;;10.37;;
19842;SDS011;10082;51.038;6.992;2023-04-06T02:44:42;11.93;;;10.80;;
19842;SDS011;10082;51.038;6.992;2023-04-06T02:47:10;11.50;;;10.50;;
19842;SDS011;10082;51.038;6.992;2023-04-06T02:49:40;12.00;;;10.90;;
19842;SDS011;10082;51.038;6.992;2023-04-06T02:52:07;11.67;;;10.50;;
19842;SDS011;10082;51.038;6.992;2023-04-06T02:54:35;12.43;;;11.13;;
19842;SDS011;10082;51.038;6.992;2023-04-06T02:57:03;11.43;;;10.43;;
19842;SDS011;10082;51.038;6.992;2023-04-06T02:59:38;11.70;;;10.70;;
19842;SDS011;10082;51.038;6.992;2023-04-06T03:02:19;12.07;;;11.00;;
19842;SDS011;10082;51.038;6.992;2023-04-06T03:04:50;12.23;;;11.03;;
19842;SDS011;10082;51.038;6.992;2023-04-06T03:07:23;11.13;;;10.00;;
19842;SDS011;10082;51.038;6.992;2023-04-06T03:09:51;11.87;;;10.70;;
19842;SDS011;10082;51.038;6.992;2023-04-06T03:12:19;11.63;;;10.53;;
19842;SDS011;10082;51.038;6.992;2023-04-06T03:15:16;11.40;;;10.30;;
19842;SDS011;10082;51.038;6.992;2023-04-06T03:17:51;11.53;;;10.53;;
19842;SDS011;10082;51.038;6.992;2023-04-06T03:20:31;11.90;;;10.83;;
19842;SDS011;10082;51.038;6.992;2023-04-06T03:22:58;12.53;;;11.43;;
19842;SDS011;10082;51.038;6.992;2023-04-06T03:25:29;11.93;;;10.83;;
19842;SDS011;10082;51.038;6.992;2023-04-06T03:28:02;11.57;;;10.47;;
19842;SDS011;10082;51.038;6.992;2023-04-06T03:30:33;12.50;;;11.40;;
19842;SDS011;10082;51.038;6.992;2023-04-06T03:33:07;11.97;;;10.97;;
19842;SDS011;10082;51.038;6.992;2023-04-06T03:35:43;11.57;;;10.47;;
19842;SDS011;10082;51.038;6.992;2023-04-06T03:38:10;12.03;;;10.93;;
19842;SDS011;10082;51.038;6.992;2023-04-06T03:40:38;11.27;;;10.27;;
19842;SDS011;10082;51.038;6.992;2023-04-06T03:43:05;11.50;;;10.40;;
19842;SDS011;10082;51.038;6.992;2023-04-06T03:45:34;12.60;;;11.30;;
19842;SDS011;10082;51.038;6.992;2023-04-06T03:48:02;11.43;;;10.33;;
19842;SDS011;10082;51.038;6.992;2023-04-06T03:50:34;12.33;;;11.13;;
19842;SDS011;10082;51.038;6.992;2023-04-06T03:53:01;12.40;;;11.40;;
19842;SDS011;10082;51.038;6.992;2023-04-06T03:55:29;13.13;;;11.50;;
19842;SDS011;10082;51.038;6.992;2023-04-06T03:57:56;11.93;;;10.90;;
19842;SDS011;10082;51.038;6.992;2023-04-06T04:00:24;12.40;;;11.20;;
19842;SDS011;10082;51.038;6.992;2023-04-06T04:02:54;12.10;;;10.97;;
19842;SDS011;10082;51.038;6.992;2023-04-06T04:05:21;11.40;;;10.37;;
19842;SDS011;10082;51.038;6.992;2023-04-06T04:07:53;12.37;;;11.17;;
19842;SDS011;10082;51.038;6.992;2023-04-06T04:10:24;11.40;;;10.30;;
19842;SDS011;10082;51.038;6.992;2023-04-06T04:12:51;12.30;;;11.20;;
19842;SDS011;10082;51.038;6.992;2023-04-06T04:15:19;12.13;;;10.93;;
19842;SDS011;10082;51.038;6.992;2023-04-06T04:17:47;12.33;;;11.17;;
19842;SDS011;10082;51.038;6.992;2023-04-06T04:20:15;11.90;;;10.73;;
19842;SDS011;10082;51.038;6.992;2023-04-06T04:22:43;11.70;;;10.60;;
19842;SDS011;10082;51.038;6.992;2023-04-06T04:25:11;12.17;;;11.07;;
19842;SDS011;10082;51.038;6.992;2023-04-06T04:27:45;12.73;;;11.63;;
19842;SDS011;10082;51.038;6.992;2023-04-06T04:30:13;12.60;;;11.47;;
19842;SDS011;10082;51.038;6.992;2023-04-06T04:32:41;12.93;;;11.73;;
19842;SDS011;10082;51.038;6.992;2023-04-06T04:35:09;12.80;;;11.60;;
19842;SDS011;10082;51.038;6.992;2023-04-06T04:37:40;12.30;;;11.20;;
19842;SDS011;10082;51.038;6.992;2023-04-06T04:40:09;13.20;;;11.90;;
19842;SDS011;10082;51.038;6.992;2023-04-06T04:42:48;13.23;;;11.90;;
19842;SDS011;10082;51.038;6.992;2023-04-06T04:45:23;14.03;;;12.83;;
19842;SDS011;10082;51.038;6.992;2023-04-06T04:47:51;14.57;;;13.17;;
19842;SDS011;10082;51.038;6.992;2023-04-06T04:50:21;14.73;;;13.27;;
19842;SDS011;10082;51.038;6.992;2023-04-06T04:52:53;14.10;;;12.80;;
19842;SDS011;10082;51.038;6.992;2023-04-06T04:55:25;13.83;;;12.63;;
19842;SDS011;10082;51.038;6.992;2023-04-06T04:57:56;15.37;;;13.87;;
19842;SDS011;10082;51.038;6.992;2023-04-06T05:00:40;14.43;;;13.13;;
19842;SDS011;10082;51.038;6.992;2023-04-06T05:03:08;13.27;;;11.97;;
19842;SDS011;10082;51.038;6.992;2023-04-06T05:05:39;13.03;;;11.73;;
19842;SDS011;10082;51.038;6.992;2023-04-06T05:08:06;13.10;;;11.90;;
19842;SDS011;10082;51.038;6.992;2023-04-06T05:10:43;14.10;;;12.80;;
19842;SDS011;10082;51.038;6.992;2023-04-06T05:13:12;12.93;;;11.73;;
19842;SDS011;10082;51.038;6.992;2023-04-06T05:15:40;12.13;;;11.03;;
19842;SDS011;10082;51.038;6.992;2023-04-06T05:18:18;12.47;;;11.37;;
19842;SDS011;10082;51.038;6.992;2023-04-06T05:20:51;13.40;;;12.17;;
19842;SDS011;10082;51.038;6.992;2023-04-06T05:23:23;12.70;;;11.40;;
19842;SDS011;10082;51.038;6.992;2023-04-06T05:25:53;12.20;;;11.00;;
19842;SDS011;10082;51.038;6.992;2023-04-06T05:28:22;11.93;;;10.83;;
19842;SDS011;10082;51.038;6.992;2023-04-06T05:30:49;11.10;;;10.10;;
19842;SDS011;10082;51.038;6.992;2023-04-06T05:33:17;11.87;;;10.77;;
19842;SDS011;10082;51.038;6.992;2023-04-06T05:36:00;11.73;;;10.50;;
19842;SDS011;10082;51.038;6.992;2023-04-06T05:38:29;10.80;;;9.80;;
19842;SDS011;10082;51.038;6.992;2023-04-06T05:41:13;10.13;;;9.23;;
19842;SDS011;10082;51.038;6.992;2023-04-06T05:43:41;10.50;;;9.60;;
19842;SDS011;10082;51.038;6.992;2023-04-06T05:46:08;10.40;;;9.40;;
19842;SDS011;10082;51.038;6.992;2023-04-06T05:48:37;10.07;;;9.17;;
19842;SDS011;10082;51.038;6.992;2023-04-06T05:51:04;10.30;;;9.40;;
19842;SDS011;10082;51.038;6.992;2023-04-06T05:53:40;10.77;;;9.77;;
19842;SDS011;10082;51.038;6.992;2023-04-06T05:56:07;10.40;;;9.50;;
19842;SDS011;10082;51.038;6.992;2023-04-06T05:58:37;10.40;;;9.50;;
19842;SDS011;10082;51.038;6.992;2023-04-06T06:01:07;9.33;;;8.43;;
19842;SDS011;10082;51.038;6.992;2023-04-06T06:03:39;9.50;;;8.70;;
19842;SDS011;10082;51.038;6.992;2023-04-06T06:06:06;9.00;;;8.20;;
19842;SDS011;10082;51.038;6.992;2023-04-06T06:08:58;8.43;;;7.67;;
19842;SDS011;10082;51.038;6.992;2023-04-06T06:11:27;7.77;;;7.07;;
19842;SDS011;10082;51.038;6.992;2023-04-06T06:13:56;7.97;;;7.17;;
19842;SDS011;10082;51.038;6.992;2023-04-06T06:16:24;8.17;;;7.47;;
19842;SDS011;10082;51.038;6.992;2023-04-06T06:21:45;7.57;;;6.87;;
19842;SDS011;10082;51.038;6.992;2023-04-06T06:24:12;7.70;;;7.00;;
19842;SDS011;10082;51.038;6.992;2023-04-06T06:26:39;7.50;;;6.80;;
19842;SDS011;10082;51.038;6.992;2023-04-06T06:29:11;7.13;;;6.53;;
19842;SDS011;10082;51.038;6.992;2023-04-06T06:31:38;7.23;;;6.53;;
19842;SDS011;10082;51.038;6.992;2023-04-06T06:34:06;6.77;;;6.17;;
19842;SDS011;10082;51.038;6.992;2023-04-06T06:36:35;6.73;;;6.03;;
19842;SDS011;10082;51.038;6.992;2023-04-06T06:39:05;6.23;;;5.63;;
19842;SDS011;10082;51.038;6.992;2023-04-06T06:41:32;6.73;;;6.03;;
19842;SDS011;10082;51.038;6.992;2023-04-06T06:44:00;6.20;;;5.63;;
19842;SDS011;10082;51.038;6.992;2023-04-06T06:46:29;6.37;;;5.77;;
19842;SDS011;10082;51.038;6.992;2023-04-06T06:48:57;6.63;;;6.03;;
19842;SDS011;10082;51.038;6.992;2023-04-06T06:51:28;7.10;;;5.87;;
19842;SDS011;10082;51.038;6.992;2023-04-06T06:54:00;6.23;;;5.60;;
19842;SDS011;10082;51.038;6.992;2023-04-06T06:56:27;5.47;;;4.97;;
19842;SDS011;10082;51.038;6.992;2023-04-06T06:58:55;6.23;;;5.60;;
19842;SDS011;10082;51.038;6.992;2023-04-06T07:01:23;7.20;;;6.50;;
19842;SDS011;10082;51.038;6.992;2023-04-06T07:03:53;5.73;;;5.13;;
19842;SDS011;10082;51.038;6.992;2023-04-06T07:06:20;6.10;;;5.50;;
19842;SDS011;10082;51.038;6.992;2023-04-06T07:08:51;6.53;;;5.77;;
19842;SDS011;10082;51.038;6.992;2023-04-06T07:11:18;7.60;;;5.90;;
19842;SDS011;10082;51.038;6.992;2023-04-06T07:13:46;6.20;;;5.70;;
19842;SDS011;10082;51.038;6.992;2023-04-06T07:16:14;7.20;;;5.77;;
19842;SDS011;10082;51.038;6.992;2023-04-06T07:18:42;6.50;;;5.63;;
19842;SDS011;10082;51.038;6.992;2023-04-06T07:21:13;6.20;;;5.60;;
19842;SDS011;10082;51.038;6.992;2023-04-06T07:23:41;5.93;;;5.35;;
19842;SDS011;10082;51.038;6.992;2023-04-06T07:26:09;6.60;;;6.00;;
19842;SDS011;10082;51.038;6.992;2023-04-06T07:28:38;6.45;;;5.72;;
19842;SDS011;10082;51.038;6.992;2023-04-06T07:31:11;6.68;;;6.00;;
19842;SDS011;10082;51.038;6.992;2023-04-06T07:33:38;6.72;;;6.13;;
19842;SDS011;10082;51.038;6.992;2023-04-06T07:36:06;6.55;;;5.90;;
19842;SDS011;10082;51.038;6.992;2023-04-06T07:38:37;6.43;;;5.75;;
19842;SDS011;10082;51.038;6.992;2023-04-06T07:41:05;6.22;;;5.63;;
19842;SDS011;10082;51.038;6.992;2023-04-06T07:43:33;7.22;;;6.53;;
19842;SDS011;10082;51.038;6.992;2023-04-06T07:46:01;6.82;;;6.05;;
19842;SDS011;10082;51.038;6.992;2023-04-06T07:48:30;7.47;;;6.65;;
19842;SDS011;10082;51.038;6.992;2023-04-06T07:51:00;6.80;;;6.18;;
19842;SDS011;10082;51.038;6.992;2023-04-06T07:53:29;7.85;;;6.93;;
19842;SDS011;10082;51.038;6.992;2023-04-06T07:55:59;6.43;;;5.80;;
19842;SDS011;10082;51.038;6.992;2023-04-06T07:58:27;7.22;;;6.38;;
19842;SDS011;10082;51.038;6.992;2023-04-06T08:01:00;7.07;;;6.38;;
19842;SDS011;10082;51.038;6.992;2023-04-06T08:03:28;7.18;;;6.47;;
19842;SDS011;10082;51.038;6.992;2023-04-06T08:05:55;7.60;;;6.80;;
19842;SDS011;10082;51.038;6.992;2023-04-06T08:08:22;7.55;;;6.70;;
19842;SDS011;10082;51.038;6.992;2023-04-06T08:10:50;8.02;;;6.72;;
19842;SDS011;10082;51.038;6.992;2023-04-06T08:13:20;7.57;;;6.78;;
19842;SDS011;10082;51.038;6.992;2023-04-06T08:15:47;7.97;;;6.97;;
19842;SDS011;10082;51.038;6.992;2023-04-06T08:18:15;7.28;;;6.07;;
19842;SDS011;10082;51.038;6.992;2023-04-06T08:20:43;8.13;;;6.43;;
19842;SDS011;10082;51.038;6.992;2023-04-06T08:23:10;7.85;;;7.05;;
19842;SDS011;10082;51.038;6.992;2023-04-06T08:25:37;9.50;;;6.97;;
19842;SDS011;10082;51.038;6.992;2023-04-06T08:28:11;8.25;;;7.03;;
19842;SDS011;10082;51.038;6.992;2023-04-06T08:30:45;7.70;;;6.90;;
19842;SDS011;10082;51.038;6.992;2023-04-06T08:33:12;8.35;;;7.47;;
19842;SDS011;10082;51.038;6.992;2023-04-06T08:35:40;8.80;;;7.95;;
19842;SDS011;10082;51.038;6.992;2023-04-06T08:38:08;8.48;;;7.68;;
19842;SDS011;10082;51.038;6.992;2023-04-06T08:40:36;8.45;;;7.65;;
19842;SDS011;10082;51.038;6.992;2023-04-06T08:43:05;7.82;;;7.13;;
19842;SDS011;10082;51.038;6.992;2023-04-06T08:45:34;9.13;;;8.23;;
19842;SDS011;10082;51.038;6.992;2023-04-06T08:48:06;9.68;;;8.77;;
19842;SDS011;10082;51.038;6.992;2023-04-06T08:50:34;9.70;;;8.00;;
19842;SDS011;10082;51.038;6.992;2023-04-06T08:53:03;9.73;;;8.73;;
19842;SDS011;10082;51.038;6.992;2023-04-06T08:55:30;8.30;;;7.45;;
19842;SDS011;10082;51.038;6.992;2023-04-06T08:57:59;9.48;;;8.57;;
19842;SDS011;10082;51.038;6.992;2023-04-06T09:00:28;9.27;;;8.38;;
19842;SDS011;10082;51.038;6.992;2023-04-06T09:03:01;9.48;;;8.45;;
19842;SDS011;10082;51.038;6.992;2023-04-06T09:05:32;11.13;;;8.50;;
19842;SDS011;10082;51.038;6.992;2023-04-06T09:08:09;9.90;;;8.90;;
19842;SDS011;10082;51.038;6.992;2023-04-06T09:10:40;9.10;;;8.18;;
19842;SDS011;10082;51.038;6.992;2023-04-06T09:13:08;10.70;;;9.10;;
19842;SDS011;10082;51.038;6.992;2023-04-06T09:15:36;9.95;;;8.95;;
19842;SDS011;10082;51.038;6.992;2023-04-06T09:18:05;9.10;;;8.15;;
19842;SDS011;10082;51.038;6.992;2023-04-06T09:20:38;10.75;;;9.10;;
19842;SDS011;10082;51.038;6.992;2023-04-06T09:23:06;11.00;;;9.20;;
19842;SDS011;10082;51.038;6.992;2023-04-06T09:25:45;11.30;;;7.35;;
19842;SDS011;10082;51.038;6.992;2023-04-06T09:28:13;9.85;;;7.82;;
19842;SDS011;10082;51.038;6.992;2023-04-06T09:30:47;12.43;;;7.95;;
19842;SDS011;10082;51.038;6.992;2023-04-06T09:33:21;9.15;;;7.63;;
19842;SDS011;10082;51.038;6.992;2023-04-06T09:35:54;10.23;;;8.48;;
19842;SDS011;10082;51.038;6.992;2023-04-06T09:38:36;12.05;;;8.68;;
19842;SDS011;10082;51.038;6.992;2023-04-06T09:43:47;10.32;;;8.05;;
19842;SDS011;10082;51.038;6.992;2023-04-06T09:46:16;10.35;;;8.30;;
19842;SDS011;10082;51.038;6.992;2023-04-06T09:48:44;12.63;;;8.57;;
19842;SDS011;10082;51.038;6.992;2023-04-06T09:51:17;12.85;;;8.80;;
19842;SDS011;10082;51.038;6.992;2023-04-06T09:53:47;10.93;;;8.88;;
19842;SDS011;10082;51.038;6.992;2023-04-06T09:56:25;12.77;;;8.82;;
19842;SDS011;10082;51.038;6.992;2023-04-06T09:59:02;13.35;;;8.50;;
19842;SDS011;10082;51.038;6.992;2023-04-06T10:01:35;14.02;;;9.00;;
19842;SDS011;10082;51.038;6.992;2023-04-06T10:04:06;12.55;;;9.38;;
19842;SDS011;10082;51.038;6.992;2023-04-06T10:06:49;12.40;;;9.05;;
19842;SDS011;10082;51.038;6.992;2023-04-06T10:09:23;11.35;;;9.02;;
19842;SDS011;10082;51.038;6.992;2023-04-06T10:12:01;9.73;;;8.65;;
19842;SDS011;10082;51.038;6.992;2023-04-06T10:14:30;11.57;;;9.43;;
19842;SDS011;10082;51.038;6.992;2023-04-06T10:17:00;12.13;;;9.80;;
19842;SDS011;10082;51.038;6.992;2023-04-06T10:19:44;12.95;;;9.63;;
19842;SDS011;10082;51.038;6.992;2023-04-06T10:22:23;13.60;;;10.35;;
19842;SDS011;10082;51.038;6.992;2023-04-06T10:24:54;11.65;;;9.70;;
19842;SDS011;10082;51.038;6.992;2023-04-06T10:27:27;12.38;;;10.32;;
19842;SDS011;10082;51.038;6.992;2023-04-06T10:30:00;12.00;;;9.80;;
19842;SDS011;10082;51.038;6.992;2023-04-06T10:32:36;13.18;;;10.45;;
19842;SDS011;10082;51.038;6.992;2023-04-06T10:35:08;13.30;;;10.60;;
19842;SDS011;10082;51.038;6.992;2023-04-06T10:37:49;11.95;;;9.90;;
19842;SDS011;10082;51.038;6.992;2023-04-06T10:40:18;13.32;;;10.80;;
19842;SDS011;10082;51.038;6.992;2023-04-06T10:42:48;11.93;;;9.90;;
19842;SDS011;10082;51.038;6.992;2023-04-06T10:47:50;13.98;;;10.73;;
19842;SDS011;10082;51.038;6.992;2023-04-06T10:50:20;12.57;;;10.40;;
19842;SDS011;10082;51.038;6.992;2023-04-06T10:52:59;14.23;;;9.85;;
19842;SDS011;10082;51.038;6.992;2023-04-06T10:55:28;14.82;;;10.43;;
19842;SDS011;10082;51.038;6.992;2023-04-06T10:57:58;12.45;;;10.30;;
19842;SDS011;10082;51.038;6.992;2023-04-06T11:00:26;11.57;;;9.70;;
19842;SDS011;10082;51.038;6.992;2023-04-06T11:02:59;12.20;;;9.80;;
19842;SDS011;10082;51.038;6.992;2023-04-06T11:05:27;13.43;;;9.98;;
19842;SDS011;10082;51.038;6.992;2023-04-06T11:07:55;13.15;;;10.23;;
19842;SDS011;10082;51.038;6.992;2023-04-06T11:10:24;12.77;;;9.82;;
19842;SDS011;10082;51.038;6.992;2023-04-06T11:12:52;14.35;;;9.60;;
19842;SDS011;10082;51.038;6.992;2023-04-06T11:15:35;12.50;;;10.27;;
19842;SDS011;10082;51.038;6.992;2023-04-06T11:18:03;17.27;;;10.25;;
19842;SDS011;10082;51.038;6.992;2023-04-06T11:20:31;12.93;;;9.55;;
19842;SDS011;10082;51.038;6.992;2023-04-06T11:22:59;14.52;;;11.07;;
19842;SDS011;10082;51.038;6.992;2023-04-06T11:25:28;15.60;;;11.40;;
19842;SDS011;10082;51.038;6.992;2023-04-06T11:27:57;13.57;;;10.15;;
19842;SDS011;10082;51.038;6.992;2023-04-06T11:30:25;13.57;;;10.10;;
19842;SDS011;10082;51.038;6.992;2023-04-06T11:32:59;13.35;;;9.98;;
19842;SDS011;10082;51.038;6.992;2023-04-06T11:35:31;11.82;;;10.25;;
19842;SDS011;10082;51.038;6.992;2023-04-06T11:38:02;12.30;;;10.15;;
19842;SDS011;10082;51.038;6.992;2023-04-06T11:40:32;16.45;;;11.50;;
19842;SDS011;10082;51.038;6.992;2023-04-06T11:43:05;12.70;;;10.07;;
19842;SDS011;10082;51.038;6.992;2023-04-06T11:45:41;12.70;;;9.88;;
19842;SDS011;10082;51.038;6.992;2023-04-06T11:48:17;13.60;;;9.68;;
19842;SDS011;10082;51.038;6.992;2023-04-06T11:50:46;12.77;;;9.88;;
19842;SDS011;10082;51.038;6.992;2023-04-06T11:53:14;14.23;;;9.65;;
19842;SDS011;10082;51.038;6.992;2023-04-06T11:55:43;18.25;;;10.77;;
19842;SDS011;10082;51.038;6.992;2023-04-06T11:58:12;14.55;;;10.48;;
19842;SDS011;10082;51.038;6.992;2023-04-06T12:00:40;13.38;;;10.07;;
19842;SDS011;10082;51.038;6.992;2023-04-06T12:03:10;14.68;;;10.25;;
19842;SDS011;10082;51.038;6.992;2023-04-06T12:05:38;13.20;;;9.15;;
19842;SDS011;10082;51.038;6.992;2023-04-06T12:08:09;11.95;;;9.30;;
19842;SDS011;10082;51.038;6.992;2023-04-06T12:10:36;14.98;;;9.18;;
19842;SDS011;10082;51.038;6.992;2023-04-06T12:13:06;12.02;;;9.13;;
19842;SDS011;10082;51.038;6.992;2023-04-06T12:15:33;13.65;;;10.32;;
19842;SDS011;10082;51.038;6.992;2023-04-06T12:18:00;13.82;;;10.10;;
19842;SDS011;10082;51.038;6.992;2023-04-06T12:20:29;12.32;;;9.07;;
19842;SDS011;10082;51.038;6.992;2023-04-06T12:22:56;12.45;;;9.88;;
19842;SDS011;10082;51.038;6.992;2023-04-06T12:25:24;12.95;;;9.65;;
19842;SDS011;10082;51.038;6.992;2023-04-06T12:27:51;11.40;;;8.65;;
19842;SDS011;10082;51.038;6.992;2023-04-06T12:30:21;11.38;;;8.73;;
19842;SDS011;10082;51.038;6.992;2023-04-06T12:32:50;10.75;;;8.25;;
19842;SDS011;10082;51.038;6.992;2023-04-06T12:35:18;11.43;;;8.43;;
19842;SDS011;10082;51.038;6.992;2023-04-06T12:37:46;10.63;;;7.97;;
19842;SDS011;10082;51.038;6.992;2023-04-06T12:40:16;10.82;;;8.75;;
19842;SDS011;10082;51.038;6.992;2023-04-06T12:42:44;10.40;;;7.93;;
19842;SDS011;10082;51.038;6.992;2023-04-06T12:45:12;12.57;;;8.35;;
19842;SDS011;10082;51.038;6.992;2023-04-06T12:47:42;14.38;;;9.32;;
19842;SDS011;10082;51.038;6.992;2023-04-06T12:50:10;13.35;;;9.18;;
19842;SDS011;10082;51.038;6.992;2023-04-06T12:52:37;12.57;;;9.15;;
19842;SDS011;10082;51.038;6.992;2023-04-06T12:55:05;11.90;;;8.63;;
19842;SDS011;10082;51.038;6.992;2023-04-06T12:57:36;12.82;;;8.82;;
19842;SDS011;10082;51.038;6.992;2023-04-06T13:00:04;15.50;;;8.90;;
19842;SDS011;10082;51.038;6.992;2023-04-06T13:02:32;13.80;;;9.00;;
19842;SDS011;10082;51.038;6.992;2023-04-06T13:05:03;14.43;;;8.90;;
19842;SDS011;10082;51.038;6.992;2023-04-06T13:07:31;12.50;;;8.60;;
19842;SDS011;10082;51.038;6.992;2023-04-06T13:09:58;13.57;;;7.97;;
19842;SDS011;10082;51.038;6.992;2023-04-06T13:12:27;13.55;;;8.65;;
19842;SDS011;10082;51.038;6.992;2023-04-06T13:14:55;10.68;;;8.40;;
19842;SDS011;10082;51.038;6.992;2023-04-06T13:17:23;11.93;;;7.38;;
19842;SDS011;10082;51.038;6.992;2023-04-06T13:19:51;11.20;;;8.10;;
19842;SDS011;10082;51.038;6.992;2023-04-06T13:22:20;10.45;;;7.47;;
19842;SDS011;10082;51.038;6.992;2023-04-06T13:24:48;10.82;;;7.38;;
19842;SDS011;10082;51.038;6.992;2023-04-06T13:27:15;10.80;;;7.40;;
19842;SDS011;10082;51.038;6.992;2023-04-06T13:29:42;8.98;;;6.40;;
19842;SDS011;10082;51.038;6.992;2023-04-06T13:32:11;10.97;;;5.80;;
19842;SDS011;10082;51.038;6.992;2023-04-06T13:34:38;7.05;;;5.55;;
19842;SDS011;10082;51.038;6.992;2023-04-06T13:37:10;7.18;;;5.60;;
19842;SDS011;10082;51.038;6.992;2023-04-06T13:39:40;8.63;;;6.20;;
19842;SDS011;10082;51.038;6.992;2023-04-06T13:42:07;8.27;;;6.60;;
19842;SDS011;10082;51.038;6.992;2023-04-06T13:44:35;7.93;;;7.13;;
19842;SDS011;10082;51.038;6.992;2023-04-06T13:47:03;8.45;;;6.55;;
19842;SDS011;10082;51.038;6.992;2023-04-06T13:49:31;10.13;;;7.50;;
19842;SDS011;10082;51.038;6.992;2023-04-06T13:51:58;9.13;;;6.22;;
19842;SDS011;10082;51.038;6.992;2023-04-06T13:54:26;10.90;;;7.43;;
19842;SDS011;10082;51.038;6.992;2023-04-06T13:56:55;8.57;;;6.43;;
19842;SDS011;10082;51.038;6.992;2023-04-06T13:59:22;7.80;;;6.63;;
19842;SDS011;10082;51.038;6.992;2023-04-06T14:01:50;8.30;;;6.32;;
19842;SDS011;10082;51.038;6.992;2023-04-06T14:04:17;9.52;;;6.50;;
19842;SDS011;10082;51.038;6.992;2023-04-06T14:06:45;8.18;;;5.93;;
19842;SDS011;10082;51.038;6.992;2023-04-06T14:09:16;7.68;;;5.78;;
19842;SDS011;10082;51.038;6.992;2023-04-06T14:11:43;9.20;;;6.82;;
19842;SDS011;10082;51.038;6.992;2023-04-06T14:14:14;8.90;;;6.72;;
19842;SDS011;10082;51.038;6.992;2023-04-06T14:16:41;10.00;;;7.00;;
19842;SDS011;10082;51.038;6.992;2023-04-06T14:19:10;11.35;;;7.25;;
19842;SDS011;10082;51.038;6.992;2023-04-06T14:21:38;8.93;;;6.90;;
19842;SDS011;10082;51.038;6.992;2023-04-06T14:24:05;8.32;;;6.40;;
19842;SDS011;10082;51.038;6.992;2023-04-06T14:26:33;6.55;;;5.93;;
19842;SDS011;10082;51.038;6.992;2023-04-06T14:29:00;9.18;;;6.10;;
19842;SDS011;10082;51.038;6.992;2023-04-06T14:31:31;7.95;;;5.53;;
19842;SDS011;10082;51.038;6.992;2023-04-06T14:34:00;9.55;;;7.43;;
19842;SDS011;10082;51.038;6.992;2023-04-06T14:36:28;7.53;;;6.28;;
19842;SDS011;10082;51.038;6.992;2023-04-06T14:39:02;7.53;;;6.07;;
19842;SDS011;10082;51.038;6.992;2023-04-06T14:41:30;8.15;;;7.35;;
19842;SDS011;10082;51.038;6.992;2023-04-06T14:43:57;8.50;;;6.90;;
19842;SDS011;10082;51.038;6.992;2023-04-06T14:46:25;7.47;;;6.35;;
19842;SDS011;10082;51.038;6.992;2023-04-06T14:49:01;7.90;;;6.45;;
19842;SDS011;10082;51.038;6.992;2023-04-06T14:51:35;7.80;;;5.88;;
19842;SDS011;10082;51.038;6.992;2023-04-06T14:54:03;7.72;;;6.32;;
19842;SDS011;10082;51.038;6.992;2023-04-06T14:56:30;6.75;;;5.38;;
19842;SDS011;10082;51.038;6.992;2023-04-06T14:58:58;7.80;;;6.20;;
19842;SDS011;10082;51.038;6.992;2023-04-06T15:01:26;10.55;;;8.45;;